sim
Sign-in with your pilot id or email,
or register
Callsign
Passwort

Schedule Details

Flight Number: OEO5164
Departure: Vienna International Airport (LOWW) at 18:10
Arrival: Geneva International Airport (LSGG) at 19:55

Weather Information
Getting current METAR information for LOWW 101850Z 14006KT CAVOK 11/02 Q1016 NOSIG
Getting current METAR information for LSGG 101850Z 25004KT 210V280 CAVOK 12/03 Q1012 NOSIG

Schedule Frequency

Route Map